sensor_id;sensor_type;location;lat;lon;timestamp;pressure;altitude;pressure_sealevel;temperature;humidity
49044;BME280;34860;48.066;14.124;2022-10-28T00:02:20;97628.66;;;12.23;77.15
49044;BME280;34860;48.066;14.124;2022-10-28T00:05:10;97630.69;;;12.22;77.13
49044;BME280;34860;48.066;14.124;2022-10-28T00:07:59;97636.78;;;12.13;77.10
49044;BME280;34860;48.066;14.124;2022-10-28T00:10:48;97634.22;;;11.99;77.59
49044;BME280;34860;48.066;14.124;2022-10-28T00:13:37;97629.94;;;11.91;77.54
49044;BME280;34860;48.066;14.124;2022-10-28T00:16:28;97616.00;;;11.94;77.66
49044;BME280;34860;48.066;14.124;2022-10-28T00:19:17;97618.25;;;12.03;77.34
49044;BME280;34860;48.066;14.124;2022-10-28T00:22:07;97619.81;;;12.04;77.30
49044;BME280;34860;48.066;14.124;2022-10-28T00:24:55;97621.03;;;12.03;77.29
49044;BME280;34860;48.066;14.124;2022-10-28T00:27:44;97623.09;;;11.99;77.33
49044;BME280;34860;48.066;14.124;2022-10-28T00:30:33;97620.44;;;11.92;77.27
49044;BME280;34860;48.066;14.124;2022-10-28T00:33:22;97633.31;;;11.78;77.53
49044;BME280;34860;48.066;14.124;2022-10-28T00:36:13;97630.28;;;11.69;77.69
49044;BME280;34860;48.066;14.124;2022-10-28T00:39:09;97629.59;;;11.61;78.01
49044;BME280;34860;48.066;14.124;2022-10-28T00:41:59;97632.34;;;11.65;77.80
49044;BME280;34860;48.066;14.124;2022-10-28T00:44:55;97628.75;;;11.64;77.70
49044;BME280;34860;48.066;14.124;2022-10-28T00:47:47;97635.47;;;11.67;77.63
49044;BME280;34860;48.066;14.124;2022-10-28T00:50:44;97639.44;;;11.70;77.50
49044;BME280;34860;48.066;14.124;2022-10-28T00:53:35;97631.50;;;11.68;77.33
49044;BME280;34860;48.066;14.124;2022-10-28T00:56:29;97634.78;;;11.59;77.68
49044;BME280;34860;48.066;14.124;2022-10-28T00:59:23;97629.06;;;11.43;77.79
49044;BME280;34860;48.066;14.124;2022-10-28T01:02:12;97628.75;;;11.37;77.92
49044;BME280;34860;48.066;14.124;2022-10-28T01:05:02;97634.41;;;11.30;78.04
49044;BME280;34860;48.066;14.124;2022-10-28T01:07:52;97625.72;;;11.28;78.01
49044;BME280;34860;48.066;14.124;2022-10-28T01:11:03;97620.44;;;11.34;77.87
49044;BME280;34860;48.066;14.124;2022-10-28T01:14:13;97616.47;;;11.35;77.70
49044;BME280;34860;48.066;14.124;2022-10-28T01:17:14;97626.78;;;11.34;77.74
49044;BME280;34860;48.066;14.124;2022-10-28T01:20:28;97618.84;;;11.33;77.74
49044;BME280;34860;48.066;14.124;2022-10-28T01:23:27;97612.78;;;11.41;77.70
49044;BME280;34860;48.066;14.124;2022-10-28T01:26:43;97604.09;;;11.39;77.51
49044;BME280;34860;48.066;14.124;2022-10-28T01:30:07;97613.25;;;11.36;77.52
49044;BME280;34860;48.066;14.124;2022-10-28T01:33:05;97612.03;;;11.37;77.50
49044;BME280;34860;48.066;14.124;2022-10-28T01:35:59;97614.47;;;11.35;77.61
49044;BME280;34860;48.066;14.124;2022-10-28T01:38:56;97614.16;;;11.30;77.56
49044;BME280;34860;48.066;14.124;2022-10-28T01:41:54;97614.59;;;11.24;77.56
49044;BME280;34860;48.066;14.124;2022-10-28T01:44:49;97615.81;;;11.23;77.49
49044;BME280;34860;48.066;14.124;2022-10-28T01:47:44;97617.03;;;11.22;77.62
49044;BME280;34860;48.066;14.124;2022-10-28T01:50:42;97615.00;;;11.26;77.32
49044;BME280;34860;48.066;14.124;2022-10-28T01:53:36;97613.81;;;11.24;77.51
49044;BME280;34860;48.066;14.124;2022-10-28T01:56:31;97615.91;;;11.16;77.50
49044;BME280;34860;48.066;14.124;2022-10-28T01:59:23;97619.56;;;11.09;77.61
49044;BME280;34860;48.066;14.124;2022-10-28T02:02:14;97607.69;;;11.05;77.80
49044;BME280;34860;48.066;14.124;2022-10-28T02:05:05;97604.84;;;11.13;77.42
49044;BME280;34860;48.066;14.124;2022-10-28T02:08:02;97608.31;;;11.20;77.30
49044;BME280;34860;48.066;14.124;2022-10-28T02:11:02;97612.75;;;11.14;77.38
49044;BME280;34860;48.066;14.124;2022-10-28T02:14:00;97609.34;;;11.03;77.51
49044;BME280;34860;48.066;14.124;2022-10-28T02:16:57;97619.75;;;10.95;77.70
49044;BME280;34860;48.066;14.124;2022-10-28T02:19:53;97601.03;;;10.99;77.63
49044;BME280;34860;48.066;14.124;2022-10-28T02:22:50;97596.16;;;11.07;77.49
49044;BME280;34860;48.066;14.124;2022-10-28T02:25:45;97596.44;;;11.16;76.86
49044;BME280;34860;48.066;14.124;2022-10-28T02:28:40;97585.31;;;11.16;76.83
49044;BME280;34860;48.066;14.124;2022-10-28T02:31:32;97581.41;;;11.10;76.96
49044;BME280;34860;48.066;14.124;2022-10-28T02:34:25;97584.59;;;11.08;76.79
49044;BME280;34860;48.066;14.124;2022-10-28T02:37:20;97588.91;;;11.13;76.99
49044;BME280;34860;48.066;14.124;2022-10-28T02:40:13;97591.00;;;11.05;77.12
49044;BME280;34860;48.066;14.124;2022-10-28T02:43:06;97591.19;;;10.91;77.36
49044;BME280;34860;48.066;14.124;2022-10-28T02:45:58;97596.94;;;10.77;77.81
49044;BME280;34860;48.066;14.124;2022-10-28T02:48:51;97601.00;;;10.68;77.79
49044;BME280;34860;48.066;14.124;2022-10-28T02:51:44;97605.94;;;10.53;77.94
49044;BME280;34860;48.066;14.124;2022-10-28T02:54:37;97606.41;;;10.48;78.06
49044;BME280;34860;48.066;14.124;2022-10-28T02:57:29;97596.53;;;10.44;77.95
49044;BME280;34860;48.066;14.124;2022-10-28T03:00:21;97595.38;;;10.38;77.89
49044;BME280;34860;48.066;14.124;2022-10-28T03:03:11;97601.75;;;10.34;77.91
49044;BME280;34860;48.066;14.124;2022-10-28T03:06:00;97608.94;;;10.28;77.93
49044;BME280;34860;48.066;14.124;2022-10-28T03:08:49;97617.34;;;10.21;77.83
49044;BME280;34860;48.066;14.124;2022-10-28T03:11:38;97601.09;;;10.16;78.06
49044;BME280;34860;48.066;14.124;2022-10-28T03:14:26;97598.34;;;10.16;77.85
49044;BME280;34860;48.066;14.124;2022-10-28T03:17:16;97596.28;;;10.24;77.81
49044;BME280;34860;48.066;14.124;2022-10-28T03:20:06;97586.72;;;10.28;77.74
49044;BME280;34860;48.066;14.124;2022-10-28T03:22:56;97581.97;;;10.25;77.76
49044;BME280;34860;48.066;14.124;2022-10-28T03:25:45;97578.84;;;10.23;77.74
49044;BME280;34860;48.066;14.124;2022-10-28T03:28:34;97572.81;;;10.28;77.67
49044;BME280;34860;48.066;14.124;2022-10-28T03:31:22;97577.53;;;10.35;77.43
49044;BME280;34860;48.066;14.124;2022-10-28T03:34:12;97589.44;;;10.32;77.26
49044;BME280;34860;48.066;14.124;2022-10-28T03:37:01;97602.75;;;10.13;77.58
49044;BME280;34860;48.066;14.124;2022-10-28T03:39:50;97605.75;;;9.85;77.84
49044;BME280;34860;48.066;14.124;2022-10-28T03:42:39;97609.97;;;9.51;78.23
49044;BME280;34860;48.066;14.124;2022-10-28T03:45:28;97608.53;;;9.29;78.58
49044;BME280;34860;48.066;14.124;2022-10-28T03:48:17;97613.72;;;9.19;78.67
49044;BME280;34860;48.066;14.124;2022-10-28T03:51:07;97612.16;;;9.15;78.52
49044;BME280;34860;48.066;14.124;2022-10-28T03:53:56;97607.84;;;9.06;78.49
49044;BME280;34860;48.066;14.124;2022-10-28T03:56:45;97601.94;;;8.97;78.50
49044;BME280;34860;48.066;14.124;2022-10-28T03:59:34;97595.66;;;8.89;78.41
49044;BME280;34860;48.066;14.124;2022-10-28T04:02:23;97601.22;;;8.86;78.70
49044;BME280;34860;48.066;14.124;2022-10-28T04:05:12;97598.03;;;8.87;78.52
49044;BME280;34860;48.066;14.124;2022-10-28T04:08:03;97594.06;;;8.85;78.35
49044;BME280;34860;48.066;14.124;2022-10-28T04:10:52;97605.97;;;8.82;78.50
49044;BME280;34860;48.066;14.124;2022-10-28T04:13:40;97618.28;;;8.81;78.29
49044;BME280;34860;48.066;14.124;2022-10-28T04:16:29;97615.88;;;8.76;78.27
49044;BME280;34860;48.066;14.124;2022-10-28T04:19:18;97607.19;;;8.73;78.26
49044;BME280;34860;48.066;14.124;2022-10-28T04:22:06;97602.84;;;8.72;78.18
49044;BME280;34860;48.066;14.124;2022-10-28T04:24:57;97613.13;;;8.76;78.02
49044;BME280;34860;48.066;14.124;2022-10-28T04:27:46;97605.25;;;8.67;78.26
49044;BME280;34860;48.066;14.124;2022-10-28T04:30:35;97613.97;;;8.65;78.26
49044;BME280;34860;48.066;14.124;2022-10-28T04:33:24;97613.16;;;8.68;78.18
49044;BME280;34860;48.066;14.124;2022-10-28T04:36:13;97625.81;;;8.66;78.03
49044;BME280;34860;48.066;14.124;2022-10-28T04:39:01;97624.28;;;8.58;78.17
49044;BME280;34860;48.066;14.124;2022-10-28T04:41:52;97631.44;;;8.44;78.39
49044;BME280;34860;48.066;14.124;2022-10-28T04:44:41;97625.06;;;8.40;78.28
49044;BME280;34860;48.066;14.124;2022-10-28T04:47:29;97630.25;;;8.27;78.45
49044;BME280;34860;48.066;14.124;2022-10-28T04:50:18;97624.31;;;8.18;78.44
49044;BME280;34860;48.066;14.124;2022-10-28T04:53:07;97627.88;;;8.11;78.58
49044;BME280;34860;48.066;14.124;2022-10-28T04:55:56;97622.34;;;8.08;78.49
49044;BME280;34860;48.066;14.124;2022-10-28T04:58:47;97615.22;;;8.07;78.32
49044;BME280;34860;48.066;14.124;2022-10-28T05:01:36;97617.19;;;8.21;78.34
49044;BME280;34860;48.066;14.124;2022-10-28T05:04:25;97604.91;;;8.36;77.74
49044;BME280;34860;48.066;14.124;2022-10-28T05:07:14;97610.84;;;8.45;77.62
49044;BME280;34860;48.066;14.124;2022-10-28T05:10:04;97604.47;;;8.52;77.39
49044;BME280;34860;48.066;14.124;2022-10-28T05:12:53;97619.16;;;8.49;77.42
49044;BME280;34860;48.066;14.124;2022-10-28T05:15:43;97621.53;;;8.36;77.77
49044;BME280;34860;48.066;14.124;2022-10-28T05:18:32;97612.03;;;8.30;77.96
49044;BME280;34860;48.066;14.124;2022-10-28T05:21:21;97617.97;;;8.32;78.07
49044;BME280;34860;48.066;14.124;2022-10-28T05:24:10;97621.94;;;8.24;78.19
49044;BME280;34860;48.066;14.124;2022-10-28T05:26:58;97613.66;;;8.20;78.25
49044;BME280;34860;48.066;14.124;2022-10-28T05:29:47;97607.69;;;8.18;78.26
49044;BME280;34860;48.066;14.124;2022-10-28T05:32:38;97603.38;;;8.17;78.27
49044;BME280;34860;48.066;14.124;2022-10-28T05:35:27;97607.69;;;8.25;78.11
49044;BME280;34860;48.066;14.124;2022-10-28T05:38:16;97612.41;;;8.39;77.84
49044;BME280;34860;48.066;14.124;2022-10-28T05:41:05;97616.00;;;8.50;77.56
49044;BME280;34860;48.066;14.124;2022-10-28T05:43:54;97604.91;;;8.40;77.53
49044;BME280;34860;48.066;14.124;2022-10-28T05:46:42;97603.72;;;8.37;77.79
49044;BME280;34860;48.066;14.124;2022-10-28T05:49:33;97604.91;;;8.47;77.70
49044;BME280;34860;48.066;14.124;2022-10-28T05:52:22;97604.88;;;8.54;77.51
49044;BME280;34860;48.066;14.124;2022-10-28T05:55:11;97606.44;;;8.55;77.67
49044;BME280;34860;48.066;14.124;2022-10-28T05:57:59;97606.06;;;8.60;77.61
49044;BME280;34860;48.066;14.124;2022-10-28T06:00:49;97610.38;;;8.68;77.25
49044;BME280;34860;48.066;14.124;2022-10-28T06:03:38;97613.56;;;8.63;77.55
49044;BME280;34860;48.066;14.124;2022-10-28T06:06:28;97615.97;;;8.54;77.88
49044;BME280;34860;48.066;14.124;2022-10-28T06:09:17;97617.94;;;8.50;77.98
49044;BME280;34860;48.066;14.124;2022-10-28T06:12:07;97618.75;;;8.54;77.87
49044;BME280;34860;48.066;14.124;2022-10-28T06:14:56;97627.84;;;8.54;77.74
49044;BME280;34860;48.066;14.124;2022-10-28T06:17:46;97625.09;;;8.51;77.83
49044;BME280;34860;48.066;14.124;2022-10-28T06:20:36;97614.00;;;8.47;77.88
49044;BME280;34860;48.066;14.124;2022-10-28T06:23:26;97610.84;;;8.49;77.88
49044;BME280;34860;48.066;14.124;2022-10-28T06:26:16;97611.59;;;8.64;77.65
49044;BME280;34860;48.066;14.124;2022-10-28T06:29:05;97623.44;;;8.64;77.57
49044;BME280;34860;48.066;14.124;2022-10-28T06:31:53;97629.81;;;8.65;77.46
49044;BME280;34860;48.066;14.124;2022-10-28T06:34:42;97629.41;;;8.66;77.60
49044;BME280;34860;48.066;14.124;2022-10-28T06:37:31;97623.41;;;8.75;77.52
49044;BME280;34860;48.066;14.124;2022-10-28T06:40:21;97638.09;;;8.68;77.31
49044;BME280;34860;48.066;14.124;2022-10-28T06:43:10;97644.06;;;8.56;77.79
49044;BME280;34860;48.066;14.124;2022-10-28T06:46:01;97649.59;;;8.56;77.62
49044;BME280;34860;48.066;14.124;2022-10-28T06:48:50;97653.56;;;8.59;77.60
49044;BME280;34860;48.066;14.124;2022-10-28T06:51:40;97650.38;;;8.57;77.56
49044;BME280;34860;48.066;14.124;2022-10-28T06:54:29;97653.94;;;8.64;77.25
49044;BME280;34860;48.066;14.124;2022-10-28T06:57:19;97663.44;;;8.63;77.24
49044;BME280;34860;48.066;14.124;2022-10-28T07:00:10;97657.50;;;8.61;77.26
49044;BME280;34860;48.066;14.124;2022-10-28T07:02:59;97667.00;;;8.67;77.35
49044;BME280;34860;48.066;14.124;2022-10-28T07:05:48;97670.56;;;8.71;77.30
49044;BME280;34860;48.066;14.124;2022-10-28T07:08:38;97669.34;;;8.72;77.41
49044;BME280;34860;48.066;14.124;2022-10-28T07:11:26;97665.38;;;8.84;77.35
49044;BME280;34860;48.066;14.124;2022-10-28T07:14:16;97665.75;;;8.86;77.33
49044;BME280;34860;48.066;14.124;2022-10-28T07:17:05;97659.75;;;9.02;77.10
49044;BME280;34860;48.066;14.124;2022-10-28T07:19:54;97669.63;;;9.11;77.20
49044;BME280;34860;48.066;14.124;2022-10-28T07:22:43;97673.53;;;9.24;77.07
49044;BME280;34860;48.066;14.124;2022-10-28T07:25:32;97673.88;;;9.37;76.90
49044;BME280;34860;48.066;14.124;2022-10-28T07:28:21;97666.22;;;9.55;76.56
49044;BME280;34860;48.066;14.124;2022-10-28T07:31:15;97672.81;;;9.79;76.14
49044;BME280;34860;48.066;14.124;2022-10-28T07:34:03;97675.47;;;9.97;75.74
49044;BME280;34860;48.066;14.124;2022-10-28T07:36:53;97676.91;;;10.16;75.47
49044;BME280;34860;48.066;14.124;2022-10-28T07:39:42;97659.41;;;10.23;75.36
49044;BME280;34860;48.066;14.124;2022-10-28T07:42:32;97667.66;;;10.30;75.32
49044;BME280;34860;48.066;14.124;2022-10-28T07:45:20;97660.84;;;10.39;75.06
49044;BME280;34860;48.066;14.124;2022-10-28T07:48:11;97661.28;;;10.37;75.28
49044;BME280;34860;48.066;14.124;2022-10-28T07:50:59;97670.41;;;10.38;75.39
49044;BME280;34860;48.066;14.124;2022-10-28T07:53:49;97666.84;;;10.37;75.36
49044;BME280;34860;48.066;14.124;2022-10-28T07:56:37;97672.41;;;10.37;75.47
49044;BME280;34860;48.066;14.124;2022-10-28T07:59:26;97673.56;;;10.40;75.52
49044;BME280;34860;48.066;14.124;2022-10-28T08:02:17;97673.16;;;10.41;75.43
49044;BME280;34860;48.066;14.124;2022-10-28T08:05:08;97674.28;;;10.47;75.44
49044;BME280;34860;48.066;14.124;2022-10-28T08:07:57;97675.44;;;10.53;75.48
49044;BME280;34860;48.066;14.124;2022-10-28T08:10:45;97681.03;;;10.50;75.50
49044;BME280;34860;48.066;14.124;2022-10-28T08:13:34;97687.44;;;10.40;75.90
49044;BME280;34860;48.066;14.124;2022-10-28T08:16:24;97686.22;;;10.44;76.02
49044;BME280;34860;48.066;14.124;2022-10-28T08:19:15;97692.56;;;10.48;75.96
49044;BME280;34860;48.066;14.124;2022-10-28T08:22:05;97685.09;;;10.38;76.38
49044;BME280;34860;48.066;14.124;2022-10-28T08:24:54;97690.28;;;10.29;76.83
49044;BME280;34860;48.066;14.124;2022-10-28T08:27:43;97685.03;;;10.42;76.92
49044;BME280;34860;48.066;14.124;2022-10-28T08:30:31;97676.16;;;10.61;76.30
49044;BME280;34860;48.066;14.124;2022-10-28T08:33:26;97673.22;;;10.76;76.06
49044;BME280;34860;48.066;14.124;2022-10-28T08:36:15;97674.03;;;10.72;76.20
49044;BME280;34860;48.066;14.124;2022-10-28T08:39:06;97675.28;;;10.68;76.49
49044;BME280;34860;48.066;14.124;2022-10-28T08:42:02;97671.59;;;10.78;76.49
49044;BME280;34860;48.066;14.124;2022-10-28T08:45:19;97676.22;;;10.92;76.31
49044;BME280;34860;48.066;14.124;2022-10-28T08:48:17;97678.53;;;10.97;76.17
49044;BME280;34860;48.066;14.124;2022-10-28T08:51:13;97679.69;;;11.00;76.22
49044;BME280;34860;48.066;14.124;2022-10-28T08:54:12;97682.06;;;11.01;76.28
49044;BME280;34860;48.066;14.124;2022-10-28T08:57:03;97682.84;;;11.02;76.29
49044;BME280;34860;48.066;14.124;2022-10-28T08:59:54;97695.56;;;11.03;76.25
49044;BME280;34860;48.066;14.124;2022-10-28T09:02:51;97693.09;;;11.08;76.30
49044;BME280;34860;48.066;14.124;2022-10-28T09:05:44;97693.31;;;11.25;75.98
49044;BME280;34860;48.066;14.124;2022-10-28T09:08:38;97701.56;;;11.32;76.06
49044;BME280;34860;48.066;14.124;2022-10-28T09:11:38;97687.72;;;11.29;76.28
49044;BME280;34860;48.066;14.124;2022-10-28T09:14:45;97695.53;;;11.37;76.24
49044;BME280;34860;48.066;14.124;2022-10-28T09:17:45;97700.19;;;11.48;76.14
49044;BME280;34860;48.066;14.124;2022-10-28T09:20:44;97700.31;;;11.68;75.69
49044;BME280;34860;48.066;14.124;2022-10-28T09:23:42;97696.97;;;11.80;75.66
49044;BME280;34860;48.066;14.124;2022-10-28T09:26:44;97700.75;;;11.93;75.55
49044;BME280;34860;48.066;14.124;2022-10-28T09:29:42;97692.78;;;11.95;75.44
49044;BME280;34860;48.066;14.124;2022-10-28T09:32:39;97695.03;;;12.04;75.69
49044;BME280;34860;48.066;14.124;2022-10-28T09:35:35;97699.34;;;12.09;75.72
49044;BME280;34860;48.066;14.124;2022-10-28T09:38:28;97707.97;;;12.18;75.52
49044;BME280;34860;48.066;14.124;2022-10-28T09:41:20;97701.19;;;12.19;75.59
49044;BME280;34860;48.066;14.124;2022-10-28T09:44:16;97699.91;;;12.24;75.44
49044;BME280;34860;48.066;14.124;2022-10-28T09:47:13;97694.03;;;12.18;75.73
49044;BME280;34860;48.066;14.124;2022-10-28T09:50:05;97691.13;;;12.25;75.73
49044;BME280;34860;48.066;14.124;2022-10-28T09:53:06;97703.31;;;12.35;75.53
49044;BME280;34860;48.066;14.124;2022-10-28T09:55:58;97708.06;;;12.38;75.37
49044;BME280;34860;48.066;14.124;2022-10-28T09:58:48;97707.38;;;12.54;75.17
49044;BME280;34860;48.066;14.124;2022-10-28T10:01:39;97703.97;;;12.66;74.80
49044;BME280;34860;48.066;14.124;2022-10-28T10:04:29;97709.72;;;12.79;74.58
49044;BME280;34860;48.066;14.124;2022-10-28T10:07:27;97708.66;;;12.93;74.40
49044;BME280;34860;48.066;14.124;2022-10-28T10:10:22;97701.66;;;13.05;74.29
49044;BME280;34860;48.066;14.124;2022-10-28T10:13:12;97705.84;;;13.17;74.28
49044;BME280;34860;48.066;14.124;2022-10-28T10:16:14;97704.78;;;13.31;74.13
49044;BME280;34860;48.066;14.124;2022-10-28T10:19:08;97714.34;;;13.50;73.82
49044;BME280;34860;48.066;14.124;2022-10-28T10:21:57;97716.72;;;13.51;73.97
49044;BME280;34860;48.066;14.124;2022-10-28T10:24:45;97705.94;;;13.53;74.04
49044;BME280;34860;48.066;14.124;2022-10-28T10:27:34;97699.31;;;13.63;74.05
49044;BME280;34860;48.066;14.124;2022-10-28T10:30:25;97699.41;;;13.60;74.54
49044;BME280;34860;48.066;14.124;2022-10-28T10:33:19;97697.16;;;13.51;74.79
49044;BME280;34860;48.066;14.124;2022-10-28T10:36:15;97699.09;;;13.54;74.84
49044;BME280;34860;48.066;14.124;2022-10-28T10:39:19;97705.75;;;13.60;75.02
49044;BME280;34860;48.066;14.124;2022-10-28T10:42:14;97694.78;;;13.70;74.56
49044;BME280;34860;48.066;14.124;2022-10-28T10:45:17;97699.31;;;13.63;74.95
49044;BME280;34860;48.066;14.124;2022-10-28T10:48:11;97701.41;;;13.59;75.05
49044;BME280;34860;48.066;14.124;2022-10-28T10:51:04;97704.06;;;13.47;75.50
49044;BME280;34860;48.066;14.124;2022-10-28T10:53:56;97699.78;;;13.42;75.72
49044;BME280;34860;48.066;14.124;2022-10-28T10:56:47;97694.47;;;13.27;76.04
49044;BME280;34860;48.066;14.124;2022-10-28T10:59:36;97701.19;;;13.10;76.71
49044;BME280;34860;48.066;14.124;2022-10-28T11:02:27;97696.81;;;13.09;76.75
49044;BME280;34860;48.066;14.124;2022-10-28T11:05:20;97697.97;;;13.12;76.54
49044;BME280;34860;48.066;14.124;2022-10-28T11:08:24;97690.44;;;13.29;76.36
49044;BME280;34860;48.066;14.124;2022-10-28T11:11:19;97684.44;;;13.50;75.79
49044;BME280;34860;48.066;14.124;2022-10-28T11:14:19;97677.88;;;13.40;75.87
49044;BME280;34860;48.066;14.124;2022-10-28T11:17:23;97679.84;;;13.60;75.83
49044;BME280;34860;48.066;14.124;2022-10-28T11:20:21;97677.94;;;13.73;75.29
49044;BME280;34860;48.066;14.124;2022-10-28T11:23:24;97672.25;;;13.60;75.40
49044;BME280;34860;48.066;14.124;2022-10-28T11:26:20;97658.91;;;13.68;75.63
49044;BME280;34860;48.066;14.124;2022-10-28T11:29:12;97654.53;;;13.67;75.35
49044;BME280;34860;48.066;14.124;2022-10-28T11:32:18;97647.16;;;13.77;75.03
49044;BME280;34860;48.066;14.124;2022-10-28T11:35:16;97652.56;;;13.84;74.68
49044;BME280;34860;48.066;14.124;2022-10-28T11:38:19;97648.03;;;13.90;74.40
49044;BME280;34860;48.066;14.124;2022-10-28T11:41:25;97649.34;;;14.02;74.35
49044;BME280;34860;48.066;14.124;2022-10-28T11:44:26;97645.06;;;14.14;73.98
49044;BME280;34860;48.066;14.124;2022-10-28T11:47:29;97644.97;;;14.17;73.74
49044;BME280;34860;48.066;14.124;2022-10-28T11:50:32;97635.81;;;14.17;73.99
49044;BME280;34860;48.066;14.124;2022-10-28T11:53:35;97636.94;;;14.20;73.89
49044;BME280;34860;48.066;14.124;2022-10-28T11:56:36;97629.50;;;14.13;74.08
49044;BME280;34860;48.066;14.124;2022-10-28T11:59:47;97623.31;;;14.05;74.52
49044;BME280;34860;48.066;14.124;2022-10-28T12:02:53;97625.06;;;13.99;74.70
49044;BME280;34860;48.066;14.124;2022-10-28T12:05:50;97619.81;;;14.01;75.07
49044;BME280;34860;48.066;14.124;2022-10-28T12:08:51;97614.25;;;14.01;75.00
49044;BME280;34860;48.066;14.124;2022-10-28T12:11:59;97605.84;;;14.01;75.22
49044;BME280;34860;48.066;14.124;2022-10-28T12:14:57;97603.56;;;13.96;75.67
49044;BME280;34860;48.066;14.124;2022-10-28T12:17:52;97614.84;;;13.92;75.97
49044;BME280;34860;48.066;14.124;2022-10-28T12:20:46;97615.78;;;14.02;75.77
49044;BME280;34860;48.066;14.124;2022-10-28T12:23:39;97609.25;;;14.25;75.45
49044;BME280;34860;48.066;14.124;2022-10-28T12:26:33;97598.88;;;14.55;74.77
49044;BME280;34860;48.066;14.124;2022-10-28T12:29:28;97587.22;;;14.73;74.32
49044;BME280;34860;48.066;14.124;2022-10-28T12:32:22;97595.09;;;15.59;73.16
49044;BME280;34860;48.066;14.124;2022-10-28T12:35:15;97585.84;;;16.36;70.79
49044;BME280;34860;48.066;14.124;2022-10-28T12:38:11;97588.41;;;16.30;70.65
49044;BME280;34860;48.066;14.124;2022-10-28T12:41:06;97592.91;;;15.79;72.18
49044;BME280;34860;48.066;14.124;2022-10-28T12:43:59;97593.19;;;15.43;73.31
49044;BME280;34860;48.066;14.124;2022-10-28T12:47:00;97601.34;;;15.37;73.91
49044;BME280;34860;48.066;14.124;2022-10-28T12:49:59;97599.00;;;15.36;73.70
49044;BME280;34860;48.066;14.124;2022-10-28T12:52:54;97592.16;;;15.24;74.51
49044;BME280;34860;48.066;14.124;2022-10-28T12:55:48;97589.69;;;15.26;74.67
49044;BME280;34860;48.066;14.124;2022-10-28T12:58:43;97586.13;;;15.38;74.30
49044;BME280;34860;48.066;14.124;2022-10-28T13:01:35;97581.19;;;15.30;74.65
49044;BME280;34860;48.066;14.124;2022-10-28T13:04:26;97581.53;;;15.32;74.81
49044;BME280;34860;48.066;14.124;2022-10-28T13:07:28;97581.19;;;15.30;74.69
49044;BME280;34860;48.066;14.124;2022-10-28T13:10:23;97584.09;;;15.26;75.11
49044;BME280;34860;48.066;14.124;2022-10-28T13:13:29;97576.13;;;15.24;75.15
49044;BME280;34860;48.066;14.124;2022-10-28T13:16:33;97574.13;;;15.38;74.82
49044;BME280;34860;48.066;14.124;2022-10-28T13:19:37;97578.50;;;15.52;74.53
49044;BME280;34860;48.066;14.124;2022-10-28T13:22:46;97580.53;;;15.64;74.26
49044;BME280;34860;48.066;14.124;2022-10-28T13:25:52;97572.44;;;16.05;73.56
49044;BME280;34860;48.066;14.124;2022-10-28T13:28:45;97580.59;;;16.25;72.79
49044;BME280;34860;48.066;14.124;2022-10-28T13:31:37;97575.00;;;16.12;73.21
49044;BME280;34860;48.066;14.124;2022-10-28T13:34:33;97578.13;;;16.14;73.87
49044;BME280;34860;48.066;14.124;2022-10-28T13:37:26;97577.72;;;17.17;71.56
49044;BME280;34860;48.066;14.124;2022-10-28T13:41:06;97581.75;;;17.78;70.12
49044;BME280;34860;48.066;14.124;2022-10-28T13:44:12;97580.25;;;17.96;69.60
49044;BME280;34860;48.066;14.124;2022-10-28T13:50:31;97565.88;;;17.53;71.04
49044;BME280;34860;48.066;14.124;2022-10-28T13:53:38;97557.06;;;17.33;71.94
49044;BME280;34860;48.066;14.124;2022-10-28T13:56:41;97557.97;;;17.70;71.29
49044;BME280;34860;48.066;14.124;2022-10-28T13:59:47;97563.56;;;17.61;71.11
49044;BME280;34860;48.066;14.124;2022-10-28T14:02:38;97556.81;;;17.18;72.17
49044;BME280;34860;48.066;14.124;2022-10-28T14:05:51;97552.44;;;16.73;73.50
49044;BME280;34860;48.066;14.124;2022-10-28T14:08:40;97557.50;;;16.43;74.23
49044;BME280;34860;48.066;14.124;2022-10-28T14:11:30;97558.47;;;16.27;74.80
49044;BME280;34860;48.066;14.124;2022-10-28T14:14:19;97565.47;;;16.09;74.96
49044;BME280;34860;48.066;14.124;2022-10-28T14:17:18;97562.25;;;15.98;75.31
49044;BME280;34860;48.066;14.124;2022-10-28T14:20:22;97561.69;;;15.90;75.46
49044;BME280;34860;48.066;14.124;2022-10-28T14:23:59;97560.16;;;15.76;75.96
49044;BME280;34860;48.066;14.124;2022-10-28T14:27:28;97557.34;;;15.64;76.07
49044;BME280;34860;48.066;14.124;2022-10-28T14:30:22;97562.72;;;15.58;76.13
49044;BME280;34860;48.066;14.124;2022-10-28T14:33:20;97561.13;;;15.57;76.17
49044;BME280;34860;48.066;14.124;2022-10-28T14:36:21;97557.00;;;15.49;76.10
49044;BME280;34860;48.066;14.124;2022-10-28T14:39:25;97561.38;;;15.50;76.34
49044;BME280;34860;48.066;14.124;2022-10-28T14:42:32;97571.88;;;15.71;75.68
49044;BME280;34860;48.066;14.124;2022-10-28T14:45:33;97571.38;;;15.76;75.38
49044;BME280;34860;48.066;14.124;2022-10-28T14:48:46;97561.25;;;15.66;75.60
49044;BME280;34860;48.066;14.124;2022-10-28T14:51:38;97563.59;;;15.55;75.71
49044;BME280;34860;48.066;14.124;2022-10-28T14:54:34;97561.56;;;15.42;75.73
49044;BME280;34860;48.066;14.124;2022-10-28T14:57:26;97558.34;;;15.31;76.05
49044;BME280;34860;48.066;14.124;2022-10-28T15:00:18;97562.25;;;15.21;76.13
49044;BME280;34860;48.066;14.124;2022-10-28T15:03:08;97566.59;;;15.09;76.26
49044;BME280;34860;48.066;14.124;2022-10-28T15:06:01;97549.56;;;15.03;76.24
49044;BME280;34860;48.066;14.124;2022-10-28T15:08:50;97554.91;;;14.98;76.30
49044;BME280;34860;48.066;14.124;2022-10-28T15:11:42;97541.47;;;14.93;76.17
49044;BME280;34860;48.066;14.124;2022-10-28T15:14:34;97540.47;;;14.86;76.21
49044;BME280;34860;48.066;14.124;2022-10-28T15:17:26;97534.66;;;14.81;76.13